首页
METAR-TAF:

METAR-TAF

机场 :

君士坦丁, 阿尔及利亚

纬度: 36-17N, 经度: 006-37E, 海拔: 694米

当前天气观测

该预报发布于22分钟前的23:30 UTC
静风
温度 13°C
湿度 100%
气压 1019 hPa
能見度: 8000

METAR: DABC 212330Z 00000KT 8000 NSC 13/13 Q1019

时间: 00:52 (23:52 UTC)

预报

该预报发布于52分钟前的23:00 UTC
预报有效从22日的 00点(UTC)到 22日的 24点(UTC)
风速2节,风向多变
能见度10公里或以上
少量云层高于2600英尺
几率 30% :
短暂存在
从 22日的 00点(UTC)到 22日的 06点(UTC)
能見度: 2000
散云层高于800英尺
轻雾
成为
从 22日的 10点(UTC)到 22日的 12点(UTC)
风速14节,风向北转西北

TAF: DABC 212300Z 2200/2224 VRB02KT 9999 FEW026 PROB30 TEMPO 2200/2206 2000 BR SCT008 BECMG 2210/2212 34014KT

超过4000个机场的气象观测和天气预报(METAR&TAF报告)。

可查询的气象台以黄色和红色小点在地图上表示。

将鼠标移到小点上方,可查看气象台名称。

然后点击查看天气观测和预报。

如需切换地图:点击带黑十字的绿色按钮放大地图;点击带横线的绿色按钮缩小地图;或者点击绿色箭头查看邻近地区的地图。


METAR-TAF: